createdAt,value
2018-11-11T00:01:53.140Z,100.00
2018-11-11T00:22:33.425Z,100.00
2018-11-11T00:43:12.897Z,100.00
2018-11-11T01:03:51.957Z,100.00
2018-11-11T01:24:32.665Z,100.00
2018-11-11T01:45:17.862Z,100.00
2018-11-11T02:05:56.921Z,100.00
2018-11-11T02:26:33.117Z,100.00
2018-11-11T02:47:11.358Z,100.00
2018-11-11T03:07:49.615Z,100.00
2018-11-11T03:28:28.250Z,100.00
2018-11-11T03:49:06.496Z,100.00
2018-11-11T04:09:43.508Z,100.00
2018-11-11T04:30:27.077Z,100.00
2018-11-11T04:51:07.365Z,100.00
2018-11-11T05:11:45.602Z,100.00
2018-11-11T05:32:25.898Z,100.00
2018-11-11T05:53:08.244Z,100.00
2018-11-11T06:13:48.129Z,100.00
2018-11-11T06:34:27.593Z,100.00
2018-11-11T06:55:07.873Z,100.00
2018-11-11T07:33:48.710Z,100.00
2018-11-11T07:54:24.904Z,100.00
2018-11-11T08:15:06.422Z,100.00
2018-11-11T08:35:46.894Z,100.00
2018-11-11T08:56:24.956Z,100.00
2018-11-11T09:17:03.387Z,100.00
2018-11-11T09:37:42.259Z,100.00
2018-11-11T09:58:20.503Z,100.00
2018-11-11T10:19:08.266Z,100.00
2018-11-11T11:01:31.442Z,97.89
2018-11-11T11:22:11.310Z,97.16
2018-11-11T11:42:53.111Z,93.89
2018-11-11T12:03:31.877Z,92.20
2018-11-11T12:24:12.572Z,92.39
2018-11-11T12:44:54.597Z,91.30
2018-11-11T13:05:32.121Z,91.45
2018-11-11T13:26:12.398Z,90.26
2018-11-11T13:46:49.669Z,89.06
2018-11-11T14:07:26.656Z,91.30
2018-11-11T14:28:06.127Z,89.31
2018-11-11T14:48:49.483Z,94.79
2018-11-11T15:09:27.525Z,97.48
2018-11-11T15:30:04.957Z,98.58
2018-11-11T15:50:43.199Z,100.00
2018-11-11T16:11:21.441Z,100.00
2018-11-11T16:32:01.735Z,100.00
2018-11-11T16:52:42.017Z,100.00
2018-11-11T17:13:21.078Z,100.00
2018-11-11T17:34:00.549Z,100.00
2018-11-11T17:54:42.909Z,100.00
2018-11-11T18:15:24.819Z,100.00
2018-11-11T18:36:03.483Z,100.00
2018-11-11T18:56:51.592Z,100.00
2018-11-11T19:35:31.560Z,100.00
2018-11-11T19:56:11.027Z,100.00
2018-11-11T20:16:51.352Z,100.00
2018-11-11T20:37:31.198Z,100.00
2018-11-11T20:58:09.854Z,100.00
2018-11-11T21:18:48.913Z,100.00
2018-11-11T21:39:30.429Z,100.00
2018-11-11T22:00:16.459Z,100.00
2018-11-11T22:20:55.932Z,100.00
2018-11-11T22:41:34.171Z,100.00
2018-11-11T23:02:09.142Z,100.00
2018-11-11T23:22:51.478Z,100.00
2018-11-11T23:43:29.719Z,100.00
